Time;durP1;ratioP1;P1;durP2;ratioP2;P2;SDS_P1;SDS_P2;PMS_P1;PMS_P2;Temp;Humidity;BMP_temperature;BMP_pressure;BME280_temperature;BME280_humidity;BME280_pressure;Samples;Min_cycle;Max_cycle;Signal;HPM_P1;HPM_P2
2024/02/15 00:00:15;;;;;;;14.83;7.60;;;;;;;;;;788701;177;924278;-65
2024/02/15 00:02:40;;;;;;;9.98;5.85;;;;;;;;;;790829;175;915685;-64
2024/02/15 00:05:07;;;;;;;9.27;6.20;;;;;;;;;;777941;178;931542;-64
2024/02/15 00:07:34;;;;;;;8.23;6.17;;;;;;;;;;787148;177;903592;-65
2024/02/15 00:09:58;;;;;;;10.73;7.30;;;;;;;;;;777847;178;880950;-65
2024/02/15 00:12:24;;;;;;;12.17;6.97;;;;;;;;;;781154;178;915759;-64
2024/02/15 00:14:50;;;;;;;9.32;6.45;;;;;;;;;;784728;178;923407;-65
2024/02/15 00:17:16;;;;;;;10.03;6.77;;;;;;;;;;785899;174;1012601;-63
2024/02/15 00:19:42;;;;;;;8.63;6.30;;;;;;;;;;783083;177;907979;-63
2024/02/15 00:22:08;;;;;;;9.13;5.62;;;;;;;;;;781347;177;910483;-64
2024/02/15 00:24:33;;;;;;;11.87;6.53;;;;;;;;;;787890;176;922628;-65
2024/02/15 00:26:59;;;;;;;12.90;7.13;;;;;;;;;;784666;176;914658;-65
2024/02/15 00:29:28;;;;;;;9.80;6.60;;;;;;;;;;781341;175;913730;-64
2024/02/15 00:31:51;;;;;;;11.53;6.37;;;;;;;;;;795095;176;915530;-65
2024/02/15 00:34:17;;;;;;;10.83;6.23;;;;;;;;;;786847;178;913569;-65
2024/02/15 00:36:43;;;;;;;12.33;6.53;;;;;;;;;;785661;177;915500;-65
2024/02/15 00:39:09;;;;;;;10.77;7.73;;;;;;;;;;789288;178;942786;-65
2024/02/15 00:41:34;;;;;;;9.80;6.10;;;;;;;;;;782654;178;921861;-64
2024/02/15 00:44:00;;;;;;;11.23;7.40;;;;;;;;;;781291;178;919377;-64
2024/02/15 00:46:28;;;;;;;9.70;5.97;;;;;;;;;;782889;177;923570;-64
2024/02/15 00:48:52;;;;;;;10.60;6.87;;;;;;;;;;785601;178;915838;-64
2024/02/15 00:51:18;;;;;;;12.30;7.23;;;;;;;;;;780411;177;917516;-65
2024/02/15 00:53:44;;;;;;;11.30;6.73;;;;;;;;;;780420;177;917126;-64
2024/02/15 00:56:09;;;;;;;10.47;6.43;;;;;;;;;;785964;178;915184;-64
2024/02/15 00:58:35;;;;;;;10.90;6.63;;;;;;;;;;787416;174;915511;-65
2024/02/15 01:01:01;;;;;;;13.70;7.27;;;;;;;;;;779686;178;915499;-65
2024/02/15 01:03:27;;;;;;;9.80;6.68;;;;;;;;;;786681;175;919431;-64
2024/02/15 01:05:53;;;;;;;11.20;7.50;;;;;;;;;;781356;178;915792;-64
2024/02/15 01:08:20;;;;;;;14.67;7.50;;;;;;;;;;779116;177;916088;-64
2024/02/15 01:10:45;;;;;;;11.50;6.60;;;;;;;;;;781020;178;919518;-65
2024/02/15 01:13:12;;;;;;;11.30;6.80;;;;;;;;;;786477;178;1016348;-64
2024/02/15 01:15:39;;;;;;;10.60;6.53;;;;;;;;;;779831;177;912433;-64
2024/02/15 01:18:02;;;;;;;13.23;7.57;;;;;;;;;;782144;177;912680;-65
2024/02/15 01:20:28;;;;;;;11.83;7.03;;;;;;;;;;784662;178;911413;-65
2024/02/15 01:22:54;;;;;;;11.40;7.37;;;;;;;;;;780826;178;915788;-65
2024/02/15 01:25:21;;;;;;;12.52;7.97;;;;;;;;;;779437;178;921182;-65
2024/02/15 01:27:46;;;;;;;17.93;7.60;;;;;;;;;;785632;178;917133;-64
2024/02/15 01:30:12;;;;;;;16.33;9.47;;;;;;;;;;788864;176;914923;-64
2024/02/15 01:32:41;;;;;;;22.33;8.17;;;;;;;;;;784419;174;930923;-66
2024/02/15 01:35:04;;;;;;;14.75;7.78;;;;;;;;;;781893;178;914151;-65
2024/02/15 01:37:30;;;;;;;10.03;7.67;;;;;;;;;;779713;179;915133;-65
2024/02/15 01:39:55;;;;;;;13.60;7.20;;;;;;;;;;778764;178;980510;-65
2024/02/15 01:42:21;;;;;;;12.88;7.20;;;;;;;;;;781937;178;919479;-65
2024/02/15 01:44:49;;;;;;;9.77;6.93;;;;;;;;;;791277;177;917982;-65
2024/02/15 01:47:13;;;;;;;13.27;8.20;;;;;;;;;;783686;178;916902;-65
2024/02/15 01:49:41;;;;;;;12.20;7.90;;;;;;;;;;781027;178;971872;-64
2024/02/15 01:52:05;;;;;;;15.87;7.53;;;;;;;;;;788599;177;918963;-65
2024/02/15 01:54:31;;;;;;;11.00;6.53;;;;;;;;;;783784;177;914275;-64
2024/02/15 01:56:56;;;;;;;10.50;7.20;;;;;;;;;;788687;178;914524;-64
2024/02/15 01:59:23;;;;;;;10.13;7.30;;;;;;;;;;781842;176;911914;-65
2024/02/15 02:01:48;;;;;;;10.60;6.53;;;;;;;;;;776962;180;910042;-65
2024/02/15 02:04:14;;;;;;;17.20;7.23;;;;;;;;;;778722;178;940463;-64
2024/02/15 02:06:40;;;;;;;12.13;6.70;;;;;;;;;;782611;177;926780;-65
2024/02/15 02:09:06;;;;;;;8.80;6.50;;;;;;;;;;787138;178;913475;-64
2024/02/15 02:11:33;;;;;;;12.77;9.30;;;;;;;;;;783154;177;916726;-65
2024/02/15 02:13:58;;;;;;;9.93;6.90;;;;;;;;;;781300;177;916775;-66
2024/02/15 02:16:26;;;;;;;13.07;7.23;;;;;;;;;;793278;177;937532;-64
2024/02/15 02:18:50;;;;;;;17.30;7.87;;;;;;;;;;778838;178;985075;-64
2024/02/15 02:21:16;;;;;;;10.50;7.20;;;;;;;;;;780877;178;917927;-65
2024/02/15 02:23:43;;;;;;;11.95;7.37;;;;;;;;;;783385;178;1170330;-66
2024/02/15 02:26:09;;;;;;;14.97;7.47;;;;;;;;;;787704;178;916556;-65
2024/02/15 02:28:34;;;;;;;16.93;7.10;;;;;;;;;;780277;178;980370;-63
2024/02/15 02:31:00;;;;;;;11.23;7.10;;;;;;;;;;783895;177;1122635;-64
2024/02/15 02:33:28;;;;;;;12.77;8.67;;;;;;;;;;786573;178;918972;-65
2024/02/15 02:35:52;;;;;;;13.13;7.60;;;;;;;;;;785404;176;915914;-64
2024/02/15 02:38:18;;;;;;;10.23;7.40;;;;;;;;;;783268;177;1019715;-65
2024/02/15 02:40:44;;;;;;;11.40;7.47;;;;;;;;;;789017;177;917490;-64
2024/02/15 02:43:10;;;;;;;13.27;7.20;;;;;;;;;;782949;177;918542;-65
2024/02/15 02:45:35;;;;;;;13.73;8.00;;;;;;;;;;780498;177;990652;-65
2024/02/15 02:48:01;;;;;;;13.70;7.77;;;;;;;;;;791606;177;1019864;-66
2024/02/15 02:50:27;;;;;;;14.43;7.70;;;;;;;;;;783728;177;919974;-65
2024/02/15 02:52:53;;;;;;;13.43;7.40;;;;;;;;;;783445;177;921839;-65
2024/02/15 02:55:20;;;;;;;11.70;8.70;;;;;;;;;;780242;179;927760;-64
2024/02/15 02:57:45;;;;;;;12.33;7.47;;;;;;;;;;784130;178;923102;-65
2024/02/15 03:00:16;;;;;;;11.47;7.27;;;;;;;;;;782799;177;920854;-65
2024/02/15 03:02:39;;;;;;;11.20;7.30;;;;;;;;;;781452;177;936328;-65
2024/02/15 03:05:05;;;;;;;12.93;8.10;;;;;;;;;;784293;178;919209;-65
2024/02/15 03:07:32;;;;;;;13.50;7.67;;;;;;;;;;778857;178;914116;-64
2024/02/15 03:09:58;;;;;;;12.60;8.50;;;;;;;;;;779697;178;915845;-64
2024/02/15 03:12:26;;;;;;;14.13;7.80;;;;;;;;;;779895;178;931045;-65
2024/02/15 03:14:50;;;;;;;15.03;7.80;;;;;;;;;;792394;177;933723;-64
2024/02/15 03:17:16;;;;;;;10.40;7.53;;;;;;;;;;786497;176;919676;-65
2024/02/15 03:19:42;;;;;;;11.90;8.13;;;;;;;;;;780790;178;1015851;-65
2024/02/15 03:22:07;;;;;;;12.95;7.37;;;;;;;;;;786603;177;916562;-64
2024/02/15 03:24:33;;;;;;;10.37;7.47;;;;;;;;;;780369;178;919839;-65
2024/02/15 03:26:59;;;;;;;10.60;8.07;;;;;;;;;;779314;178;921758;-64
2024/02/15 03:29:25;;;;;;;11.43;7.20;;;;;;;;;;790042;177;915428;-65
2024/02/15 03:31:53;;;;;;;11.50;7.20;;;;;;;;;;779574;177;921582;-64
2024/02/15 03:34:17;;;;;;;10.90;6.87;;;;;;;;;;787625;175;1024410;-65
2024/02/15 03:36:43;;;;;;;9.90;7.22;;;;;;;;;;778863;178;920283;-64
2024/02/15 03:39:09;;;;;;;10.83;6.10;;;;;;;;;;786183;177;991141;-64
2024/02/15 03:41:34;;;;;;;11.37;8.03;;;;;;;;;;778615;177;915360;-64
2024/02/15 03:44:00;;;;;;;11.00;6.97;;;;;;;;;;776786;178;918788;-64
2024/02/15 03:46:27;;;;;;;10.17;7.13;;;;;;;;;;785915;178;922286;-64
2024/02/15 03:48:52;;;;;;;9.57;6.20;;;;;;;;;;780745;178;919306;-65
2024/02/15 03:51:20;;;;;;;13.30;8.17;;;;;;;;;;780663;178;918891;-65
2024/02/15 03:53:44;;;;;;;10.47;6.37;;;;;;;;;;787174;177;917571;-64
2024/02/15 03:56:10;;;;;;;11.30;6.90;;;;;;;;;;787315;177;962347;-64
2024/02/15 03:58:37;;;;;;;10.10;6.70;;;;;;;;;;783879;175;921901;-65
2024/02/15 04:01:04;;;;;;;12.03;6.73;;;;;;;;;;787033;177;920741;-65
2024/02/15 04:03:28;;;;;;;11.37;6.30;;;;;;;;;;782310;177;918934;-65
2024/02/15 04:05:54;;;;;;;10.73;7.53;;;;;;;;;;780410;177;930270;-65
2024/02/15 04:08:20;;;;;;;12.63;6.77;;;;;;;;;;782008;177;929520;-64
2024/02/15 04:10:45;;;;;;;9.53;6.40;;;;;;;;;;789415;178;618784;-65
2024/02/15 04:13:11;;;;;;;12.73;6.33;;;;;;;;;;782563;178;637273;-64
2024/02/15 04:15:38;;;;;;;12.50;7.00;;;;;;;;;;786793;177;638534;-64
2024/02/15 04:18:03;;;;;;;8.37;6.93;;;;;;;;;;788396;178;610176;-64
2024/02/15 04:20:29;;;;;;;15.90;8.20;;;;;;;;;;790468;178;651840;-66
2024/02/15 04:22:57;;;;;;;11.93;7.60;;;;;;;;;;786291;177;940592;-64
2024/02/15 04:25:27;;;;;;;13.37;8.27;;;;;;;;;;786158;178;869049;-63
2024/02/15 04:27:47;;;;;;;12.27;8.30;;;;;;;;;;786972;176;918005;-65
2024/02/15 04:30:13;;;;;;;11.60;7.90;;;;;;;;;;793993;175;673447;-64
2024/02/15 04:32:38;;;;;;;10.00;6.63;;;;;;;;;;788156;178;631829;-65
2024/02/15 04:35:05;;;;;;;12.90;7.87;;;;;;;;;;786870;178;638816;-64
2024/02/15 04:37:32;;;;;;;11.70;7.47;;;;;;;;;;783329;177;632688;-64
2024/02/15 04:39:56;;;;;;;11.80;7.43;;;;;;;;;;783473;178;920838;-65
2024/02/15 04:42:25;;;;;;;15.40;7.50;;;;;;;;;;788010;177;943737;-65
2024/02/15 04:44:48;;;;;;;10.70;7.77;;;;;;;;;;783627;178;917612;-65
2024/02/15 04:47:14;;;;;;;11.45;7.57;;;;;;;;;;780322;177;910229;-65
2024/02/15 04:49:40;;;;;;;21.97;8.40;;;;;;;;;;792413;177;627917;-64
2024/02/15 04:52:06;;;;;;;10.00;7.43;;;;;;;;;;788220;175;917021;-65
2024/02/15 04:54:32;;;;;;;7.97;6.33;;;;;;;;;;772419;178;918643;-64
2024/02/15 04:56:58;;;;;;;13.70;10.43;;;;;;;;;;778761;178;921915;-65
2024/02/15 04:59:26;;;;;;;9.27;7.20;;;;;;;;;;793678;176;644168;-65
2024/02/15 05:01:50;;;;;;;11.13;7.57;;;;;;;;;;788761;176;630329;-65
2024/02/15 05:04:16;;;;;;;14.70;7.33;;;;;;;;;;789922;176;623025;-65
2024/02/15 05:06:42;;;;;;;12.23;7.00;;;;;;;;;;792504;177;630957;-64
2024/02/15 05:09:10;;;;;;;10.87;8.37;;;;;;;;;;785981;177;657461;-64
2024/02/15 05:11:36;;;;;;;12.30;7.80;;;;;;;;;;795988;175;644864;-65
2024/02/15 05:13:59;;;;;;;11.13;7.50;;;;;;;;;;790859;177;616092;-65
2024/02/15 05:16:26;;;;;;;16.87;8.30;;;;;;;;;;786049;177;637124;-65
2024/02/15 05:18:51;;;;;;;10.73;6.30;;;;;;;;;;785528;178;637002;-66
2024/02/15 05:21:17;;;;;;;9.03;6.60;;;;;;;;;;785429;178;633551;-66
2024/02/15 05:23:44;;;;;;;9.70;7.10;;;;;;;;;;779582;176;660778;-65
2024/02/15 05:26:08;;;;;;;9.43;6.70;;;;;;;;;;781640;178;643633;-65
2024/02/15 05:28:34;;;;;;;13.90;7.50;;;;;;;;;;784435;175;632869;-65
2024/02/15 05:31:06;;;;;;;21.23;6.53;;;;;;;;;;791909;177;639341;-65
2024/02/15 05:33:32;;;;;;;9.53;6.33;;;;;;;;;;785752;178;659521;-64
2024/02/15 05:35:58;;;;;;;13.93;7.23;;;;;;;;;;787309;177;885876;-65
2024/02/15 05:38:23;;;;;;;10.87;6.20;;;;;;;;;;788050;178;925754;-65
2024/02/15 05:40:50;;;;;;;10.20;6.80;;;;;;;;;;781575;177;918614;-65
2024/02/15 05:43:16;;;;;;;10.73;6.60;;;;;;;;;;780831;176;947183;-67
2024/02/15 05:45:41;;;;;;;8.17;5.47;;;;;;;;;;780348;178;918816;-65
2024/02/15 05:48:08;;;;;;;8.30;5.60;;;;;;;;;;787732;177;921493;-65
2024/02/15 05:50:33;;;;;;;8.60;6.50;;;;;;;;;;784468;176;917757;-67
2024/02/15 05:53:01;;;;;;;10.97;7.60;;;;;;;;;;780998;177;920232;-65
2024/02/15 05:55:26;;;;;;;8.40;5.80;;;;;;;;;;786044;178;1019613;-65
2024/02/15 05:57:50;;;;;;;11.00;7.90;;;;;;;;;;779799;178;918888;-65
2024/02/15 06:00:18;;;;;;;10.37;6.73;;;;;;;;;;782980;177;922948;-65
2024/02/15 06:02:42;;;;;;;10.00;6.50;;;;;;;;;;785267;176;860851;-64
2024/02/15 06:05:10;;;;;;;9.60;6.23;;;;;;;;;;780047;177;919604;-65
2024/02/15 06:07:34;;;;;;;8.40;6.40;;;;;;;;;;778616;178;925270;-65
2024/02/15 06:10:03;;;;;;;10.40;6.33;;;;;;;;;;780978;178;939992;-65
2024/02/15 06:12:26;;;;;;;14.67;7.00;;;;;;;;;;786982;177;918630;-65
2024/02/15 06:14:52;;;;;;;10.67;6.80;;;;;;;;;;784563;177;872328;-65
2024/02/15 06:17:18;;;;;;;10.38;6.43;;;;;;;;;;781492;177;919642;-65
2024/02/15 06:19:44;;;;;;;13.30;8.07;;;;;;;;;;787618;177;914009;-65
2024/02/15 06:22:12;;;;;;;13.37;7.17;;;;;;;;;;784493;177;920964;-65
2024/02/15 06:24:36;;;;;;;12.70;7.30;;;;;;;;;;778301;177;918019;-65
2024/02/15 06:27:02;;;;;;;11.20;7.50;;;;;;;;;;793335;178;921620;-63
2024/02/15 06:39:40;;;;;;;19.80;7.73;;;;;;;;;;788592;177;900167;-65
2024/02/15 06:42:04;;;;;;;11.27;7.20;;;;;;;;;;787698;176;786545;-65
2024/02/15 06:44:30;;;;;;;18.13;8.47;;;;;;;;;;784901;176;919856;-64
2024/02/15 06:46:56;;;;;;;9.57;6.83;;;;;;;;;;781933;177;919945;-65
2024/02/15 06:49:22;;;;;;;11.23;7.37;;;;;;;;;;784707;176;872302;-65
2024/02/15 06:51:48;;;;;;;12.60;8.27;;;;;;;;;;781881;178;1020304;-64
2024/02/15 06:54:13;;;;;;;10.57;7.13;;;;;;;;;;779369;177;919803;-66
2024/02/15 06:56:39;;;;;;;12.33;9.77;;;;;;;;;;783715;177;918918;-65
2024/02/15 06:59:07;;;;;;;14.53;8.70;;;;;;;;;;779302;177;917451;-65
2024/02/15 07:01:34;;;;;;;18.93;9.63;;;;;;;;;;778214;178;1020605;-65
2024/02/15 07:03:58;;;;;;;16.23;8.57;;;;;;;;;;790454;174;918289;-66
2024/02/15 07:06:24;;;;;;;13.43;9.30;;;;;;;;;;779405;177;925195;-66
2024/02/15 07:08:50;;;;;;;17.10;8.93;;;;;;;;;;784155;177;918596;-65
2024/02/15 07:11:15;;;;;;;12.70;8.87;;;;;;;;;;778256;178;919343;-66
2024/02/15 07:13:41;;;;;;;15.37;9.13;;;;;;;;;;788377;177;917800;-65
2024/02/15 07:16:08;;;;;;;16.37;8.40;;;;;;;;;;781528;177;914414;-65
2024/02/15 07:18:34;;;;;;;14.30;7.70;;;;;;;;;;779769;177;888277;-66
2024/02/15 07:21:01;;;;;;;12.80;8.30;;;;;;;;;;786218;178;1021490;-66
2024/02/15 07:23:25;;;;;;;17.90;10.00;;;;;;;;;;777060;177;947540;-65
2024/02/15 07:25:53;;;;;;;20.20;9.60;;;;;;;;;;778414;177;1020585;-65
2024/02/15 07:28:17;;;;;;;11.40;8.20;;;;;;;;;;787270;177;919613;-65
2024/02/15 07:30:43;;;;;;;11.97;8.37;;;;;;;;;;780820;177;1051685;-66
2024/02/15 07:33:09;;;;;;;25.43;10.47;;;;;;;;;;780933;177;916881;-65
2024/02/15 07:35:35;;;;;;;15.18;7.55;;;;;;;;;;783843;177;915026;-65
2024/02/15 07:38:01;;;;;;;13.20;7.00;;;;;;;;;;788608;175;916769;-65
2024/02/15 07:40:28;;;;;;;12.40;7.87;;;;;;;;;;781122;178;919592;-66
2024/02/15 07:42:53;;;;;;;11.75;7.25;;;;;;;;;;781213;177;937365;-65
2024/02/15 07:45:19;;;;;;;11.50;7.30;;;;;;;;;;788285;177;920451;-65
2024/02/15 07:47:45;;;;;;;12.60;7.60;;;;;;;;;;778666;177;920070;-65
2024/02/15 07:50:10;;;;;;;12.27;7.35;;;;;;;;;;781651;178;1022918;-65
2024/02/15 07:52:36;;;;;;;18.07;8.70;;;;;;;;;;786129;177;919467;-65
2024/02/15 07:55:05;;;;;;;11.20;7.20;;;;;;;;;;780470;178;1023736;-62
2024/02/15 07:57:28;;;;;;;12.17;7.77;;;;;;;;;;787014;178;1009943;-65
2024/02/15 07:59:54;;;;;;;15.13;7.90;;;;;;;;;;789157;175;921204;-65
2024/02/15 08:02:22;;;;;;;11.37;7.37;;;;;;;;;;784169;178;892888;-65
2024/02/15 08:04:45;;;;;;;15.93;6.80;;;;;;;;;;778118;178;931121;-65
2024/02/15 08:07:11;;;;;;;11.93;8.17;;;;;;;;;;780640;177;1017251;-65
2024/02/15 08:09:37;;;;;;;14.13;7.50;;;;;;;;;;788096;178;891421;-65
2024/02/15 08:12:03;;;;;;;10.45;7.18;;;;;;;;;;781743;177;927306;-64
2024/02/15 08:14:31;;;;;;;10.27;7.43;;;;;;;;;;786183;177;641251;-65
2024/02/15 08:16:55;;;;;;;11.70;6.87;;;;;;;;;;789167;176;646445;-65
2024/02/15 08:19:22;;;;;;;14.63;8.40;;;;;;;;;;784842;178;630531;-65
2024/02/15 08:21:50;;;;;;;15.90;7.83;;;;;;;;;;783078;178;758619;-65
2024/02/15 08:24:13;;;;;;;21.70;6.93;;;;;;;;;;787906;178;919987;-65
2024/02/15 08:26:39;;;;;;;10.73;7.23;;;;;;;;;;778458;178;919124;-66
2024/02/15 08:29:05;;;;;;;12.63;7.30;;;;;;;;;;780253;178;919089;-66
2024/02/15 08:31:31;;;;;;;11.53;6.47;;;;;;;;;;782550;178;921072;-65
2024/02/15 08:33:57;;;;;;;9.40;5.93;;;;;;;;;;789569;176;918844;-65
2024/02/15 08:36:22;;;;;;;7.97;5.03;;;;;;;;;;782191;178;917258;-65
2024/02/15 08:38:48;;;;;;;9.77;6.07;;;;;;;;;;784559;177;930830;-65
2024/02/15 08:41:14;;;;;;;8.93;5.80;;;;;;;;;;780540;177;913091;-65
2024/02/15 08:43:41;;;;;;;8.00;5.47;;;;;;;;;;783321;177;918411;-65
2024/02/15 08:46:06;;;;;;;10.38;7.18;;;;;;;;;;779397;177;943988;-66
2024/02/15 08:48:32;;;;;;;8.93;5.80;;;;;;;;;;785495;178;919967;-66
2024/02/15 08:50:57;;;;;;;8.00;5.77;;;;;;;;;;784775;177;647037;-65
2024/02/15 08:53:24;;;;;;;8.50;5.80;;;;;;;;;;784093;178;630988;-65
2024/02/15 08:55:49;;;;;;;11.63;5.80;;;;;;;;;;785099;178;642467;-66
2024/02/15 08:58:15;;;;;;;8.53;5.50;;;;;;;;;;779568;179;637147;-66
2024/02/15 09:00:44;;;;;;;15.10;5.93;;;;;;;;;;779956;178;714757;-65
2024/02/15 09:03:07;;;;;;;9.20;4.93;;;;;;;;;;780897;177;929312;-66
2024/02/15 09:05:33;;;;;;;8.87;4.57;;;;;;;;;;784976;178;919750;-66
2024/02/15 09:07:59;;;;;;;11.23;5.30;;;;;;;;;;782703;178;921506;-66
2024/02/15 09:10:26;;;;;;;8.32;4.62;;;;;;;;;;777521;178;948406;-66
2024/02/15 09:12:51;;;;;;;9.30;5.43;;;;;;;;;;785413;178;916252;-65
2024/02/15 09:15:17;;;;;;;10.70;5.00;;;;;;;;;;777143;178;920056;-66
2024/02/15 09:17:43;;;;;;;8.18;4.95;;;;;;;;;;780683;178;950955;-66
2024/02/15 09:20:14;;;;;;;11.07;5.50;;;;;;;;;;781582;177;918673;-66
2024/02/15 09:22:35;;;;;;;12.43;5.90;;;;;;;;;;780664;177;1007958;-65
2024/02/15 09:25:00;;;;;;;8.40;4.97;;;;;;;;;;783817;176;922880;-65
2024/02/15 09:27:26;;;;;;;7.73;4.93;;;;;;;;;;786904;177;919047;-65
2024/02/15 09:29:52;;;;;;;8.30;5.97;;;;;;;;;;785345;178;919737;-64
2024/02/15 09:32:18;;;;;;;9.33;5.07;;;;;;;;;;779585;178;922115;-65
2024/02/15 09:34:44;;;;;;;15.53;6.23;;;;;;;;;;779117;178;1009676;-65
2024/02/15 09:37:10;;;;;;;10.97;4.80;;;;;;;;;;786735;178;918446;-65
2024/02/15 09:39:36;;;;;;;10.50;5.73;;;;;;;;;;782748;178;924258;-66
2024/02/15 09:42:01;;;;;;;10.23;6.12;;;;;;;;;;781497;178;920108;-65
2024/02/15 09:44:28;;;;;;;15.83;5.80;;;;;;;;;;779151;178;914716;-66
2024/02/15 09:47:04;;;;;;;9.53;5.90;;;;;;;;;;783303;177;918381;-65
2024/02/15 09:49:29;;;;;;;12.23;5.90;;;;;;;;;;781315;178;916731;-66
2024/02/15 09:51:54;;;;;;;9.20;5.80;;;;;;;;;;782143;177;919570;-66
2024/02/15 09:54:22;;;;;;;15.23;6.77;;;;;;;;;;788354;177;1021542;-67
2024/02/15 09:56:46;;;;;;;9.60;5.90;;;;;;;;;;785397;177;913774;-66
2024/02/15 09:59:12;;;;;;;8.40;5.00;;;;;;;;;;777721;177;918270;-66
2024/02/15 10:01:40;;;;;;;9.03;6.17;;;;;;;;;;780474;177;921961;-67
2024/02/15 10:04:04;;;;;;;9.60;6.13;;;;;;;;;;788021;178;920537;-66
2024/02/15 10:06:30;;;;;;;9.10;6.10;;;;;;;;;;785847;176;915912;-66
2024/02/15 10:08:57;;;;;;;8.80;5.30;;;;;;;;;;780281;178;917971;-66
2024/02/15 10:11:21;;;;;;;10.43;5.63;;;;;;;;;;781692;178;858266;-65
2024/02/15 10:13:47;;;;;;;8.65;5.35;;;;;;;;;;780958;178;917627;-66
2024/02/15 10:16:15;;;;;;;14.27;5.90;;;;;;;;;;781427;177;1015429;-67
2024/02/15 10:18:40;;;;;;;7.47;4.82;;;;;;;;;;788393;177;1017630;-65
2024/02/15 10:21:06;;;;;;;6.33;4.97;;;;;;;;;;779721;177;920838;-65
2024/02/15 10:23:32;;;;;;;13.20;5.63;;;;;;;;;;782159;177;1018605;-66
2024/02/15 10:25:58;;;;;;;7.40;3.90;;;;;;;;;;786679;177;937689;-65
2024/02/15 10:28:24;;;;;;;7.25;4.50;;;;;;;;;;783452;177;1020429;-66
2024/02/15 10:30:52;;;;;;;6.50;3.87;;;;;;;;;;779387;178;913805;-66
2024/02/15 10:33:20;;;;;;;6.00;3.50;;;;;;;;;;780915;178;919373;-66
2024/02/15 10:35:44;;;;;;;8.93;4.73;;;;;;;;;;780139;177;1072321;-66
2024/02/15 10:38:10;;;;;;;6.10;4.00;;;;;;;;;;760392;178;918529;-66
2024/02/15 10:40:37;;;;;;;6.17;4.23;;;;;;;;;;767166;181;922036;-66
2024/02/15 10:43:03;;;;;;;7.22;4.20;;;;;;;;;;777926;179;919151;-67
2024/02/15 10:45:29;;;;;;;7.27;4.27;;;;;;;;;;776092;180;920547;-66
2024/02/15 10:47:54;;;;;;;8.50;4.77;;;;;;;;;;760621;181;1024768;-67
2024/02/15 10:50:21;;;;;;;8.40;4.33;;;;;;;;;;767120;181;918355;-66
2024/02/15 10:52:47;;;;;;;8.47;4.07;;;;;;;;;;769933;181;919415;-66
2024/02/15 10:55:13;;;;;;;8.23;4.13;;;;;;;;;;766743;181;917644;-66
2024/02/15 10:57:38;;;;;;;7.20;4.73;;;;;;;;;;766373;181;920166;-65
2024/02/15 11:00:10;;;;;;;12.07;4.67;;;;;;;;;;774029;181;922974;-66
2024/02/15 11:02:32;;;;;;;5.53;4.00;;;;;;;;;;762853;178;913231;-66
2024/02/15 11:05:03;;;;;;;12.10;4.77;;;;;;;;;;764820;180;912642;-66
2024/02/15 11:07:27;;;;;;;12.63;4.57;;;;;;;;;;768462;180;935214;-66
2024/02/15 11:09:53;;;;;;;10.90;5.03;;;;;;;;;;770652;180;913241;-66
2024/02/15 11:12:19;;;;;;;8.97;4.80;;;;;;;;;;766741;181;961320;-67
2024/02/15 11:14:44;;;;;;;11.30;5.83;;;;;;;;;;767678;180;921263;-66
2024/02/15 11:17:13;;;;;;;8.30;4.63;;;;;;;;;;773224;180;911611;-66
2024/02/15 11:19:46;;;;;;;10.00;5.00;;;;;;;;;;768780;180;911437;-66
2024/02/15 11:22:10;;;;;;;6.60;4.40;;;;;;;;;;773477;179;911388;-66
2024/02/15 11:24:36;;;;;;;11.83;3.70;;;;;;;;;;766243;181;911337;-66
2024/02/15 11:27:03;;;;;;;8.93;5.20;;;;;;;;;;771831;180;909553;-66
2024/02/15 11:29:35;;;;;;;7.40;4.20;;;;;;;;;;769111;182;624483;-66
2024/02/15 11:32:01;;;;;;;10.00;4.60;;;;;;;;;;765354;180;917232;-67
2024/02/15 11:34:32;;;;;;;9.98;4.85;;;;;;;;;;768739;181;1155409;-66
2024/02/15 11:36:58;;;;;;;6.90;3.90;;;;;;;;;;771440;181;914133;-67
2024/02/15 11:39:31;;;;;;;7.07;4.87;;;;;;;;;;776287;179;911113;-66
2024/02/15 11:42:03;;;;;;;9.83;5.03;;;;;;;;;;768378;181;897899;-66
2024/02/15 11:44:27;;;;;;;7.90;4.60;;;;;;;;;;767106;181;929778;-67
2024/02/15 11:46:57;;;;;;;8.20;4.27;;;;;;;;;;771674;181;918743;-66
2024/02/15 11:49:19;;;;;;;9.27;5.30;;;;;;;;;;769899;181;902192;-67
2024/02/15 11:51:47;;;;;;;5.75;4.15;;;;;;;;;;767456;181;933082;-67
2024/02/15 11:54:12;;;;;;;6.73;3.70;;;;;;;;;;773463;179;918203;-67
2024/02/15 11:56:54;;;;;;;5.30;3.00;;;;;;;;;;763363;180;1016399;-68
2024/02/15 11:59:29;;;;;;;5.33;3.10;;;;;;;;;;764050;181;953598;-67
2024/02/15 12:19:34;;;;;;;6.03;3.73;;;;;;;;;;765325;182;922159;-67
2024/02/15 12:22:00;;;;;;;4.33;3.00;;;;;;;;;;771331;180;914086;-67
2024/02/15 12:24:27;;;;;;;8.47;3.90;;;;;;;;;;776430;180;715424;-67
2024/02/15 12:26:51;;;;;;;5.43;3.50;;;;;;;;;;768315;180;902388;-67
2024/02/15 12:29:17;;;;;;;7.40;4.67;;;;;;;;;;773120;180;908819;-67
2024/02/15 12:31:44;;;;;;;7.50;4.50;;;;;;;;;;766554;180;913136;-67
2024/02/15 12:34:09;;;;;;;10.27;4.00;;;;;;;;;;765868;182;920080;-67
2024/02/15 12:36:37;;;;;;;6.97;3.90;;;;;;;;;;772652;181;904497;-67
2024/02/15 12:39:02;;;;;;;7.67;3.87;;;;;;;;;;767335;181;917616;-67
2024/02/15 12:41:27;;;;;;;9.17;4.30;;;;;;;;;;766095;180;918578;-68
2024/02/15 12:43:53;;;;;;;6.87;4.30;;;;;;;;;;765540;180;1020979;-67
2024/02/15 12:46:20;;;;;;;8.03;4.30;;;;;;;;;;776653;178;917322;-67
2024/02/15 12:48:46;;;;;;;6.73;4.60;;;;;;;;;;771990;180;967388;-68
2024/02/15 12:51:14;;;;;;;9.32;4.05;;;;;;;;;;766187;181;918646;-67
2024/02/15 12:53:41;;;;;;;7.40;4.30;;;;;;;;;;769974;181;896713;-67
2024/02/15 12:56:06;;;;;;;7.27;4.60;;;;;;;;;;763417;181;1099634;-66
2024/02/15 12:58:32;;;;;;;9.13;5.03;;;;;;;;;;771186;181;917047;-67
2024/02/15 13:00:58;;;;;;;8.47;5.70;;;;;;;;;;768614;181;925884;-67
2024/02/15 13:03:23;;;;;;;12.03;4.93;;;;;;;;;;764990;182;650754;-67
2024/02/15 13:05:49;;;;;;;9.97;4.60;;;;;;;;;;770883;180;625359;-67
2024/02/15 13:08:17;;;;;;;7.27;5.17;;;;;;;;;;771546;181;629957;-67
2024/02/15 13:10:41;;;;;;;8.90;4.40;;;;;;;;;;773762;181;637924;-67
2024/02/15 13:13:09;;;;;;;7.80;5.53;;;;;;;;;;767985;181;814972;-67
2024/02/15 13:15:33;;;;;;;7.77;4.70;;;;;;;;;;766126;181;916567;-67
2024/02/15 13:17:59;;;;;;;11.83;5.10;;;;;;;;;;771443;181;918723;-67
2024/02/15 13:20:35;;;;;;;7.63;4.90;;;;;;;;;;767116;181;919508;-66
2024/02/15 13:23:02;;;;;;;7.93;4.57;;;;;;;;;;767132;181;919829;-67
2024/02/15 13:25:27;;;;;;;8.77;5.20;;;;;;;;;;768624;181;916707;-67
2024/02/15 13:27:53;;;;;;;8.87;5.00;;;;;;;;;;775014;180;917370;-66
2024/02/15 13:30:21;;;;;;;8.73;5.00;;;;;;;;;;766734;180;922413;-66
2024/02/15 13:32:45;;;;;;;7.20;4.80;;;;;;;;;;768530;180;918572;-66
2024/02/15 13:35:13;;;;;;;8.40;5.40;;;;;;;;;;775023;180;627438;-67
2024/02/15 13:37:38;;;;;;;9.40;4.73;;;;;;;;;;773573;181;634400;-66
2024/02/15 13:40:14;;;;;;;10.03;5.20;;;;;;;;;;770682;181;878723;-66
2024/02/15 13:42:32;;;;;;;9.70;5.10;;;;;;;;;;764976;181;1227980;-66
2024/02/15 13:44:57;;;;;;;12.83;5.20;;;;;;;;;;770518;180;918811;-66
2024/02/15 13:47:22;;;;;;;13.40;6.20;;;;;;;;;;765943;180;935550;-66
2024/02/15 13:49:49;;;;;;;10.25;6.15;;;;;;;;;;764739;180;918437;-65
2024/02/15 13:52:16;;;;;;;8.77;5.77;;;;;;;;;;776745;179;919208;-66
2024/02/15 13:54:42;;;;;;;12.67;7.83;;;;;;;;;;769859;180;917730;-66
2024/02/15 13:57:07;;;;;;;8.07;5.85;;;;;;;;;;764820;180;957473;-65
2024/02/15 13:59:32;;;;;;;9.07;5.97;;;;;;;;;;765408;180;1021184;-66
2024/02/15 14:01:58;;;;;;;7.17;4.90;;;;;;;;;;770681;181;1010414;-64
2024/02/15 14:04:23;;;;;;;9.13;5.50;;;;;;;;;;763105;181;1112429;-65
2024/02/15 14:06:49;;;;;;;7.82;5.22;;;;;;;;;;767143;181;1082831;-66
2024/02/15 14:09:17;;;;;;;9.40;5.33;;;;;;;;;;770680;181;917242;-66
2024/02/15 14:11:41;;;;;;;10.77;5.97;;;;;;;;;;768284;180;869882;-66
2024/02/15 14:14:07;;;;;;;13.23;5.90;;;;;;;;;;771366;178;1017411;-66
2024/02/15 14:16:33;;;;;;;9.13;5.77;;;;;;;;;;771083;181;930773;-66
2024/02/15 14:18:59;;;;;;;8.33;5.60;;;;;;;;;;766214;181;1021473;-66
2024/02/15 14:21:25;;;;;;;9.83;5.60;;;;;;;;;;766369;181;940507;-66
2024/02/15 14:23:51;;;;;;;10.48;7.72;;;;;;;;;;770718;181;989951;-67
2024/02/15 14:26:17;;;;;;;10.97;6.90;;;;;;;;;;767602;181;917287;-66
2024/02/15 14:28:44;;;;;;;10.00;6.10;;;;;;;;;;766509;181;1020319;-66
2024/02/15 14:33:41;;;;;;;8.77;5.43;;;;;;;;;;769391;181;919806;-65
2024/02/15 14:36:06;;;;;;;19.10;6.37;;;;;;;;;;768368;180;918474;-66
2024/02/15 14:38:34;;;;;;;9.27;6.05;;;;;;;;;;766917;180;920152;-66
2024/02/15 14:41:00;;;;;;;11.07;6.37;;;;;;;;;;774582;177;918540;-66
2024/02/15 14:43:26;;;;;;;13.17;6.20;;;;;;;;;;783552;174;919139;-66